Flight Training


We provide structured training required to obtain a pilots certificate ranging from a Private Pilot up to ATP flying for the major airlines.

If your desire to fly is for personal pleasure the first step is to find a professional FAA licensed flight instructor to begin your journey.

The one-hour introductory flight with an instructor lasts one hour and features a log book and a six-month subscription to Flight Training magazine. After flying you to the training area, your instructor will let you test the controls. Call us now

 

Aviation Weather

Available data for KLDJ from the past 2 hours
LINDEN, NJ
Metar
KLDJ 210415Z AUTO 00000KT 1/2SM FG OVC002 18/17 A3027 RMK AO2 T01750170

04:15 UTC

Wind: 0° 0kt

Visibility: 0.5 SM

Sky: OVC 200 ft

Temp: 18 deg C / 64.4 deg F

Dewpoint: 17 deg C / 62.6 deg F

Pressure: 30.27 inHg

Pireps (2)
TEB UA /OV 1 SOUTH TEB /TM 0350/FL01/TP GLF6/SK OVC/RM BASES 200 TOP 1000
JFK UA /OV JFK/TM 0315/FL002/TP B757/SK VV003/RM BASES 002 RWY 22L

Available data for KEWR from the past hour
NEWARK, NJ
TAF
KEWR 210349Z 2104/2206 17003KT 1/4SM FG OVC002 TEMPO 2104/2107 1/2SM FG OVC004 FM211200 14003KT 4SM BR OVC007 FM211600 21007KT 6SM BR SCT007 OVC020 FM211900 21007KT P6SM BKN035 FM220500 19005KT P6SM SCT006 BKN040
Pirep (1)
TEB UA /OV 1 SOUTH TEB /TM 0350/FL01/TP GLF6/SK OVC/RM BASES 200 TOP 1000

Our planes

Some of our students